NZWN

Wellington International Airport

Airport
ICAO code
NZWN
IATA Code
WLG
Summary
ICAO Region
APAC
ICAO Territory
Location

Rongotai, Wellington,

Serving
Wellington
Elevation
42 ft
Coordinates
41° 19' 40" S , 174° 48' 38" E
KCC
Metar
Observation
NZWN 011430Z AUTO 15024KT 5000 RA FEW008/// BKN024/// OVC029/// 11/10 Q1011 TEMPO 9999 -RA BKN008
Station
Wellington Airport
Date/Time
2022-10-01 14:30:00
Wind direction
150°
Wind speed
24 kts
Lowest cloud amount
few clouds
Temperature
11°C
Dew point
10°C
Humidity
93%
QNH
1011 hPa
Weather condition
n/a

Description

Wellington International Airport (formerly known as Rongotai Airport) is located in the suburb of Rongotai in Wellington, New Zealand.

Climatology

Temperate Marine climate/Oceanic climate (Köppen climate classification Cfb). Moderately cool summer and comparatively warm winter with a temperature range of only 14°C.

Runways

Designator Length Width Surface Rops
16/34 1936 45 ASP Yes/Yes

SKYbrary Partners:

Safety knowledge contributed by: